TimeMDT,TemperatureF,Dew PointF,Humidity,Sea Level PressureIn,VisibilityMPH,Wind Direction,Wind SpeedMPH,Gust SpeedMPH,PrecipitationIn,Events,Conditions,WindDirDegrees,DateUTC
12:53 AM,54.0,28.9,38,29.90,10.0,Calm,Calm,-,N/A,,Clear,0,2013-06-16 06:53:00
1:53 AM,63.0,28.9,28,29.88,10.0,Calm,Calm,-,N/A,,Clear,0,2013-06-16 07:53:00
2:53 AM,59.0,33.1,38,29.88,10.0,Calm,Calm,-,N/A,,Clear,0,2013-06-16 08:53:00
3:53 AM,50.0,33.1,52,29.91,10.0,Calm,Calm,-,N/A,,Clear,0,2013-06-16 09:53:00
4:53 AM,52.0,30.9,45,29.90,10.0,NE,3.5,-,N/A,,Clear,40,2013-06-16 10:53:00
5:53 AM,51.1,30.0,44,29.92,10.0,East,4.6,-,N/A,,Clear,100,2013-06-16 11:53:00
6:53 AM,54.0,32.0,43,29.92,10.0,ENE,3.5,-,N/A,,Clear,70,2013-06-16 12:53:00
7:53 AM,55.0,34.0,45,29.94,10.0,East,11.5,-,N/A,,Clear,80,2013-06-16 13:53:00
8:53 AM,62.1,36.0,38,29.94,10.0,East,9.2,-,N/A,,Clear,90,2013-06-16 14:53:00
9:53 AM,66.0,37.0,34,29.96,10.0,East,10.4,-,N/A,,Clear,90,2013-06-16 15:53:00
10:53 AM,71.1,35.1,27,29.94,10.0,ESE,10.4,-,N/A,,Clear,120,2013-06-16 16:53:00
11:53 AM,77.0,37.0,24,29.93,10.0,East,8.1,-,N/A,,Clear,90,2013-06-16 17:53:00
12:53 PM,80.1,39.0,23,29.93,10.0,ESE,5.8,-,N/A,,Clear,120,2013-06-16 18:53:00
1:53 PM,82.9,37.9,20,29.88,10.0,South,6.9,-,N/A,,Clear,180,2013-06-16 19:53:00
2:53 PM,84.9,21.9,10,29.87,10.0,West,4.6,-,N/A,,Clear,260,2013-06-16 20:53:00
3:53 PM,86.0,35.1,16,29.88,10.0,WNW,8.1,-,N/A,,Clear,290,2013-06-16 21:53:00
4:53 PM,87.1,28.0,12,29.86,10.0,West,5.8,-,N/A,,Clear,270,2013-06-16 22:53:00
5:53 PM,84.0,28.9,14,29.86,10.0,West,8.1,-,N/A,,Clear,270,2013-06-16 23:53:00
6:53 PM,82.9,30.9,15,29.86,10.0,SSW,6.9,-,N/A,,Clear,210,2013-06-17 00:53:00
7:53 PM,82.9,35.1,18,29.86,10.0,SW,3.5,-,N/A,,Clear,220,2013-06-17 01:53:00
8:53 PM,78.1,37.0,23,29.86,10.0,WSW,4.6,-,N/A,,Clear,240,2013-06-17 02:53:00
9:53 PM,75.0,34.0,22,29.87,10.0,Calm,Calm,-,N/A,,Clear,0,2013-06-17 03:53:00
10:53 PM,68.0,32.0,26,29.88,10.0,Calm,Calm,-,N/A,,Clear,0,2013-06-17 04:53:00
11:53 PM,66.0,28.9,25,29.88,10.0,Calm,Calm,-,N/A,,Clear,0,2013-06-17 05:53:00